createdAt,value
2018-02-23T00:01:01.190Z,23.40
2018-02-23T00:03:28.709Z,20.37
2018-02-23T00:05:56.630Z,21.60
2018-02-23T00:08:24.151Z,18.83
2018-02-23T00:10:51.666Z,21.63
2018-02-23T00:13:19.218Z,26.17
2018-02-23T00:15:46.927Z,23.17
2018-02-23T00:18:14.611Z,25.10
2018-02-23T00:20:42.121Z,23.43
2018-02-23T00:23:09.935Z,21.33
2018-02-23T00:25:37.461Z,24.97
2018-02-23T00:28:05.257Z,23.23
2018-02-23T00:30:33.127Z,20.13
2018-02-23T00:33:00.671Z,23.50
2018-02-23T00:35:28.461Z,23.27
2018-02-23T00:37:56.023Z,22.53
2018-02-23T00:40:23.591Z,21.87
2018-02-23T00:42:51.131Z,22.33
2018-02-23T00:45:18.650Z,27.90
2018-02-23T00:47:46.213Z,20.37
2018-02-23T00:50:14.126Z,24.10
2018-02-23T00:52:41.672Z,24.70
2018-02-23T00:55:09.234Z,19.67
2018-02-23T00:57:36.786Z,24.67
2018-02-23T01:00:04.351Z,23.77
2018-02-23T01:02:32.135Z,25.90
2018-02-23T01:04:59.665Z,25.03
2018-02-23T01:07:27.461Z,28.87
2018-02-23T01:09:54.993Z,28.07
2018-02-23T01:12:22.598Z,25.73
2018-02-23T01:14:50.151Z,28.47
2018-02-23T01:17:18.249Z,26.17
2018-02-23T01:19:46.082Z,24.30
2018-02-23T01:22:13.618Z,24.87
2018-02-23T01:24:41.157Z,25.33
2018-02-23T01:27:08.717Z,27.70
2018-02-23T01:29:36.270Z,25.50
2018-02-23T01:32:03.901Z,29.83
2018-02-23T01:34:31.755Z,25.83
2018-02-23T01:36:59.307Z,29.57
2018-02-23T01:39:26.861Z,23.90
2018-02-23T01:41:54.398Z,27.37
2018-02-23T01:44:21.977Z,35.23
2018-02-23T01:46:49.508Z,26.33
2018-02-23T01:49:17.328Z,29.53
2018-02-23T01:51:44.867Z,28.27
2018-02-23T01:54:12.439Z,37.00
2018-02-23T01:56:40.318Z,28.47
2018-02-23T01:59:07.838Z,27.90
2018-02-23T02:01:35.639Z,37.57
2018-02-23T02:04:03.193Z,27.50
2018-02-23T02:06:30.710Z,31.03
2018-02-23T02:08:58.262Z,29.53
2018-02-23T02:11:25.853Z,27.53
2018-02-23T02:13:53.395Z,27.17
2018-02-23T02:16:20.952Z,24.23
2018-02-23T02:18:48.770Z,27.67
2018-02-23T02:21:16.337Z,25.07
2018-02-23T02:23:44.015Z,26.20
2018-02-23T02:26:11.534Z,28.20
2018-02-23T02:28:39.144Z,25.83
2018-02-23T02:31:06.727Z,26.17
2018-02-23T02:33:34.543Z,27.40
2018-02-23T02:36:02.077Z,29.43
2018-02-23T02:38:29.649Z,25.30
2018-02-23T02:40:57.549Z,24.80
2018-02-23T02:43:25.114Z,29.40
2018-02-23T02:45:52.662Z,28.13
2018-02-23T02:48:20.528Z,29.47
2018-02-23T02:50:48.072Z,31.17
2018-02-23T02:53:15.856Z,27.67
2018-02-23T02:55:43.400Z,24.20
2018-02-23T02:58:10.951Z,25.00
2018-02-23T03:00:38.475Z,23.03
2018-02-23T03:03:06.189Z,25.30
2018-02-23T03:05:33.756Z,31.70
2018-02-23T03:08:01.322Z,29.00
2018-02-23T03:10:29.103Z,25.43
2018-02-23T03:12:56.954Z,34.73
2018-02-23T03:15:24.535Z,36.63
2018-02-23T03:17:52.073Z,28.97
2018-02-23T03:20:19.630Z,31.53
2018-02-23T03:22:47.194Z,39.90
2018-02-23T03:25:14.801Z,37.27
2018-02-23T03:27:42.337Z,32.63
2018-02-23T03:30:09.888Z,33.70
2018-02-23T03:32:37.643Z,32.37
2018-02-23T03:35:05.296Z,34.23
2018-02-23T03:37:32.845Z,31.70
2018-02-23T03:40:00.395Z,28.03
2018-02-23T03:42:27.970Z,33.17
2018-02-23T03:44:55.498Z,30.97
2018-02-23T03:47:23.033Z,32.60
2018-02-23T03:49:50.640Z,33.40
2018-02-23T03:52:18.175Z,34.90
2018-02-23T03:54:45.710Z,31.00
2018-02-23T03:57:13.282Z,37.23
2018-02-23T03:59:41.127Z,42.47
2018-02-23T04:02:08.709Z,32.33
2018-02-23T04:04:36.547Z,28.03
2018-02-23T04:07:04.146Z,32.53
2018-02-23T04:09:31.979Z,36.50
2018-02-23T04:11:59.539Z,34.90
2018-02-23T04:14:27.086Z,44.63
2018-02-23T04:16:54.662Z,33.93
2018-02-23T04:19:29.078Z,33.60
2018-02-23T04:21:56.962Z,35.23
2018-02-23T04:24:24.502Z,33.97
2018-02-23T04:26:52.064Z,33.77
2018-02-23T04:29:19.626Z,38.93
2018-02-23T04:31:47.251Z,36.57
2018-02-23T04:34:14.860Z,56.97
2018-02-23T04:36:42.398Z,40.37
2018-02-23T04:39:10.132Z,38.57
2018-02-23T04:41:37.678Z,35.27
2018-02-23T04:44:05.212Z,39.40
2018-02-23T04:46:32.762Z,43.10
2018-02-23T04:49:00.304Z,36.73
2018-02-23T04:51:27.857Z,43.00
2018-02-23T04:53:55.389Z,40.00
2018-02-23T04:56:22.938Z,39.90
2018-02-23T04:58:50.469Z,46.47
2018-02-23T05:01:18.039Z,49.57
2018-02-23T05:03:45.696Z,38.40
2018-02-23T05:06:13.555Z,42.10
2018-02-23T05:08:41.083Z,38.13
2018-02-23T05:11:08.675Z,44.60
2018-02-23T05:13:36.254Z,45.53
2018-02-23T05:16:03.792Z,43.90
2018-02-23T05:18:31.360Z,41.07
2018-02-23T05:20:58.893Z,34.57
2018-02-23T05:23:26.438Z,41.70
2018-02-23T05:25:54.036Z,47.30
2018-02-23T05:28:21.654Z,50.57
2018-02-23T05:30:49.227Z,42.70
2018-02-23T05:33:16.762Z,39.73
2018-02-23T05:35:44.321Z,49.30
2018-02-23T05:38:11.883Z,41.10
2018-02-23T05:40:39.532Z,46.40
2018-02-23T05:43:07.145Z,50.23
2018-02-23T05:45:35.655Z,55.80
2018-02-23T05:48:03.229Z,44.93
2018-02-23T05:50:30.805Z,43.30
2018-02-23T05:52:58.467Z,59.23
2018-02-23T05:55:26.211Z,54.90
2018-02-23T05:57:53.835Z,51.53
2018-02-23T06:00:21.392Z,98.37
2018-02-23T06:02:49.290Z,48.53
2018-02-23T06:05:16.855Z,50.57
2018-02-23T06:07:44.438Z,52.30
2018-02-23T06:10:11.994Z,73.07
2018-02-23T06:12:39.549Z,49.57
2018-02-23T06:15:07.404Z,54.40
2018-02-23T06:17:40.584Z,52.13
2018-02-23T06:20:08.189Z,57.70
2018-02-23T06:22:35.785Z,45.77
2018-02-23T06:25:03.328Z,56.47
2018-02-23T06:27:30.899Z,45.07
2018-02-23T06:29:58.447Z,52.37
2018-02-23T06:32:25.999Z,54.67
2018-02-23T06:34:53.611Z,59.23
2018-02-23T06:37:21.170Z,62.00
2018-02-23T06:39:48.717Z,55.20
2018-02-23T06:42:16.293Z,53.97
2018-02-23T06:44:43.897Z,51.27
2018-02-23T06:47:12.174Z,54.23
2018-02-23T06:49:39.749Z,60.87
2018-02-23T06:52:07.332Z,55.83
2018-02-23T06:54:34.940Z,47.70
2018-02-23T06:57:02.493Z,62.77
2018-02-23T06:59:30.057Z,49.83
2018-02-23T07:01:57.675Z,51.90
2018-02-23T07:04:25.483Z,51.97
2018-02-23T07:06:53.029Z,56.80
2018-02-23T07:09:20.595Z,51.53
2018-02-23T07:11:48.573Z,51.53
2018-02-23T07:14:16.143Z,53.00
2018-02-23T07:16:43.683Z,57.60
2018-02-23T07:19:11.283Z,58.37
2018-02-23T07:21:39.181Z,74.63
2018-02-23T07:24:06.879Z,62.63
2018-02-23T07:26:35.765Z,57.80
2018-02-23T07:29:03.357Z,57.30
2018-02-23T07:31:30.905Z,55.43
2018-02-23T07:33:58.480Z,59.23
2018-02-23T07:36:26.027Z,62.67
2018-02-23T07:38:53.605Z,75.43
2018-02-23T07:41:21.447Z,56.10
2018-02-23T07:43:49.018Z,57.37
2018-02-23T07:46:16.545Z,58.93
2018-02-23T07:48:44.129Z,47.17
2018-02-23T07:51:12.066Z,62.30
2018-02-23T07:53:39.642Z,77.40
2018-02-23T07:56:07.190Z,66.73
2018-02-23T07:58:34.751Z,51.67
2018-02-23T08:01:02.326Z,60.10
2018-02-23T08:03:30.024Z,56.13
2018-02-23T08:05:57.878Z,54.00
2018-02-23T08:08:25.602Z,66.87
2018-02-23T08:10:53.211Z,57.53
2018-02-23T08:13:20.744Z,55.93
2018-02-23T08:15:48.474Z,49.73
2018-02-23T08:18:16.016Z,51.60
2018-02-23T08:20:43.604Z,53.17
2018-02-23T08:23:11.226Z,56.10
2018-02-23T08:25:38.839Z,58.97
2018-02-23T08:28:06.765Z,47.17
2018-02-23T08:30:34.353Z,76.00
2018-02-23T08:33:01.894Z,57.03
2018-02-23T08:35:29.494Z,95.20
2018-02-23T08:37:57.135Z,59.73
2018-02-23T08:40:24.692Z,68.83
2018-02-23T08:42:52.230Z,62.03
2018-02-23T08:45:19.766Z,63.53
2018-02-23T08:47:53.283Z,64.10
2018-02-23T08:50:20.892Z,64.00
2018-02-23T08:52:48.587Z,56.40
2018-02-23T08:55:16.156Z,65.70
2018-02-23T08:57:43.705Z,60.87
2018-02-23T09:00:20.105Z,56.63
2018-02-23T09:02:47.755Z,59.47
2018-02-23T09:08:00.964Z,66.07
2018-02-23T09:10:28.548Z,54.03
2018-02-23T09:12:56.107Z,68.33
2018-02-23T09:15:23.758Z,57.70
2018-02-23T09:17:51.286Z,63.72
2018-02-23T09:20:19.949Z,74.80
2018-02-23T09:22:47.597Z,55.03
2018-02-23T09:25:15.162Z,51.10
2018-02-23T09:27:42.907Z,56.13
2018-02-23T09:30:10.457Z,48.50
2018-02-23T09:32:38.973Z,56.07
2018-02-23T09:35:06.529Z,72.30
2018-02-23T09:37:34.108Z,59.27
2018-02-23T09:40:01.636Z,46.17
2018-02-23T09:42:29.160Z,76.00
2018-02-23T09:44:56.762Z,39.67
2018-02-23T09:47:24.278Z,85.63
2018-02-23T09:49:51.840Z,49.90
2018-02-23T09:52:19.369Z,51.73
2018-02-23T09:54:46.917Z,53.43
2018-02-23T09:57:14.696Z,43.00
2018-02-23T09:59:42.346Z,47.67
2018-02-23T10:02:09.871Z,41.30
2018-02-23T10:04:37.408Z,58.30
2018-02-23T10:07:04.926Z,58.80
2018-02-23T10:09:32.484Z,53.83
2018-02-23T10:12:00.027Z,71.80
2018-02-23T10:14:27.578Z,42.53
2018-02-23T10:16:55.386Z,51.93
2018-02-23T10:19:23.179Z,40.67
2018-02-23T10:21:50.778Z,44.03
2018-02-23T10:24:18.571Z,35.57
2018-02-23T10:26:46.120Z,80.93
2018-02-23T10:29:13.659Z,43.43
2018-02-23T10:31:41.216Z,47.17
2018-02-23T10:34:08.730Z,42.73
2018-02-23T10:36:36.389Z,38.47
2018-02-23T10:39:04.015Z,41.23
2018-02-23T10:41:31.879Z,36.90
2018-02-23T10:44:00.125Z,42.83
2018-02-23T10:46:28.868Z,39.50
2018-02-23T10:48:58.075Z,42.67
2018-02-23T10:51:26.027Z,39.27
2018-02-23T10:53:53.579Z,37.47
2018-02-23T10:56:21.145Z,44.80
2018-02-23T10:58:48.705Z,35.03
2018-02-23T11:01:17.231Z,32.60
2018-02-23T11:03:45.737Z,51.03
2018-02-23T11:06:13.983Z,36.97
2018-02-23T11:08:43.181Z,40.93
2018-02-23T11:11:12.603Z,46.37
2018-02-23T11:13:42.359Z,41.53
2018-02-23T11:16:10.025Z,36.23
2018-02-23T11:18:37.646Z,35.30
2018-02-23T11:21:05.189Z,32.87
2018-02-23T11:23:32.772Z,33.77
2018-02-23T11:26:00.576Z,33.73
2018-02-23T11:28:28.127Z,35.70
2018-02-23T11:30:55.689Z,35.80
2018-02-23T11:33:23.214Z,40.43
2018-02-23T11:35:50.788Z,32.20
2018-02-23T11:38:18.331Z,37.00
2018-02-23T11:40:46.138Z,36.90
2018-02-23T11:43:14.023Z,53.57
2018-02-23T11:45:41.675Z,48.53
2018-02-23T11:48:09.397Z,48.20
2018-02-23T11:50:36.953Z,43.33
2018-02-23T11:53:04.552Z,38.67
2018-02-23T11:55:32.175Z,37.50
2018-02-23T11:58:05.192Z,38.13
2018-02-23T12:00:32.828Z,46.77
2018-02-23T12:03:00.419Z,37.83
2018-02-23T12:05:28.025Z,39.30
2018-02-23T12:07:55.567Z,39.30
2018-02-23T12:10:23.123Z,41.70
2018-02-23T12:12:50.854Z,35.03
2018-02-23T12:15:18.412Z,35.90
2018-02-23T12:17:46.018Z,34.83
2018-02-23T12:20:13.871Z,37.73
2018-02-23T12:22:41.419Z,39.20
2018-02-23T12:25:08.958Z,39.67
2018-02-23T12:27:36.573Z,38.80
2018-02-23T12:30:04.105Z,36.07
2018-02-23T12:32:31.661Z,38.63
2018-02-23T12:34:59.351Z,36.97
2018-02-23T12:37:26.928Z,47.80
2018-02-23T12:39:54.497Z,38.77
2018-02-23T12:42:22.037Z,47.03
2018-02-23T12:44:49.656Z,34.67
2018-02-23T12:47:17.202Z,36.63
2018-02-23T12:49:44.796Z,35.33
2018-02-23T12:52:12.340Z,34.80
2018-02-23T12:54:39.910Z,35.53
2018-02-23T12:57:07.466Z,39.97
2018-02-23T12:59:35.003Z,37.83
2018-02-23T13:02:02.563Z,39.90
2018-02-23T13:04:30.178Z,40.07
2018-02-23T13:06:57.748Z,38.57
2018-02-23T13:09:25.325Z,36.03
2018-02-23T13:11:52.901Z,35.77
2018-02-23T13:14:20.482Z,37.00
2018-02-23T13:16:48.080Z,52.17
2018-02-23T13:19:15.622Z,34.10
2018-02-23T13:21:43.180Z,29.47
2018-02-23T13:24:10.708Z,35.10
2018-02-23T13:26:38.527Z,35.57
2018-02-23T13:29:06.074Z,36.20
2018-02-23T13:31:33.673Z,42.47
2018-02-23T13:34:01.225Z,36.00
2018-02-23T13:36:29.100Z,41.13
2018-02-23T13:38:56.671Z,34.87
2018-02-23T13:41:30.225Z,36.60
2018-02-23T13:43:57.755Z,36.63
2018-02-23T13:46:25.314Z,40.20
2018-02-23T13:48:52.865Z,36.83
2018-02-23T13:51:20.674Z,42.60
2018-02-23T13:53:48.549Z,33.67
2018-02-23T13:56:16.064Z,40.77
2018-02-23T13:58:43.619Z,40.13
2018-02-23T14:01:11.243Z,36.47
2018-02-23T14:03:38.783Z,38.23
2018-02-23T14:06:06.310Z,35.23
2018-02-23T14:08:33.853Z,35.23
2018-02-23T14:11:01.681Z,42.33
2018-02-23T14:13:29.553Z,40.60
2018-02-23T14:15:57.108Z,40.10
2018-02-23T14:18:24.985Z,35.57
2018-02-23T14:20:52.554Z,35.13
2018-02-23T14:23:20.117Z,35.00
2018-02-23T14:25:47.627Z,37.23
2018-02-23T14:28:15.179Z,35.73
2018-02-23T14:30:42.705Z,34.67
2018-02-23T14:33:10.332Z,35.47
2018-02-23T14:35:37.858Z,28.87
2018-02-23T14:38:05.662Z,32.13
2018-02-23T14:40:33.254Z,27.37
2018-02-23T14:43:00.835Z,31.23
2018-02-23T14:45:28.345Z,31.20
2018-02-23T14:47:55.902Z,30.20
2018-02-23T14:50:35.395Z,40.03
2018-02-23T14:53:02.921Z,34.10
2018-02-23T14:55:30.571Z,35.60
2018-02-23T14:57:58.106Z,34.93
2018-02-23T15:00:25.635Z,30.90
2018-02-23T15:02:53.204Z,35.70
2018-02-23T15:05:21.808Z,33.30
2018-02-23T15:07:49.379Z,34.73
2018-02-23T15:10:16.934Z,32.27
2018-02-23T15:12:44.477Z,34.00
2018-02-23T15:15:12.292Z,35.03
2018-02-23T15:17:39.859Z,30.17
2018-02-23T15:20:07.410Z,30.97
2018-02-23T15:22:39.058Z,36.87
2018-02-23T15:25:06.606Z,34.23
2018-02-23T15:27:34.583Z,38.53
2018-02-23T15:30:02.152Z,35.73
2018-02-23T15:32:30.555Z,35.60
2018-02-23T15:34:58.120Z,26.13
2018-02-23T15:37:25.956Z,32.63
2018-02-23T15:39:53.727Z,29.00
2018-02-23T15:42:21.295Z,30.63
2018-02-23T15:44:48.828Z,36.63
2018-02-23T15:47:16.440Z,43.03
2018-02-23T15:52:46.616Z,29.63
2018-02-23T15:55:14.195Z,31.00
2018-02-23T15:57:47.430Z,34.47
2018-02-23T16:00:14.984Z,37.77
2018-02-23T16:02:42.517Z,32.23
2018-02-23T16:05:10.172Z,36.53
2018-02-23T16:07:37.816Z,33.80
2018-02-23T16:10:05.413Z,41.53
2018-02-23T16:12:32.968Z,38.40
2018-02-23T16:15:00.504Z,42.37
2018-02-23T16:17:28.074Z,35.20
2018-02-23T16:19:55.593Z,32.50
2018-02-23T16:22:23.134Z,35.73
2018-02-23T16:24:50.781Z,32.97
2018-02-23T16:27:18.643Z,31.50
2018-02-23T16:29:46.517Z,32.57
2018-02-23T16:32:14.035Z,29.57
2018-02-23T16:34:41.612Z,31.83
2018-02-23T16:37:09.186Z,25.90
2018-02-23T16:39:36.755Z,31.70
2018-02-23T16:42:04.345Z,32.13
2018-02-23T16:44:31.925Z,32.50
2018-02-23T16:46:59.753Z,29.27
2018-02-23T16:49:27.319Z,26.70
2018-02-23T16:51:55.296Z,26.90
2018-02-23T16:54:22.959Z,30.20
2018-02-23T16:56:50.513Z,27.80
2018-02-23T16:59:18.093Z,29.37
2018-02-23T17:01:45.792Z,25.77
2018-02-23T17:04:13.372Z,27.00
2018-02-23T17:06:40.924Z,28.27
2018-02-23T17:09:08.482Z,24.50
2018-02-23T17:11:36.183Z,22.60
2018-02-23T17:14:04.196Z,22.57
2018-02-23T17:16:31.790Z,23.20
2018-02-23T17:18:59.574Z,25.67
2018-02-23T17:21:28.326Z,26.67
2018-02-23T17:23:55.916Z,28.17
2018-02-23T17:26:23.446Z,25.20
2018-02-23T17:28:51.042Z,23.10
2018-02-23T17:31:20.207Z,24.60
2018-02-23T17:33:48.037Z,26.30
2018-02-23T17:36:15.877Z,25.13
2018-02-23T17:38:43.666Z,39.03
2018-02-23T17:41:11.515Z,29.13
2018-02-23T17:43:39.090Z,22.47
2018-02-23T17:46:06.710Z,25.03
2018-02-23T17:48:34.359Z,25.37
2018-02-23T17:51:01.966Z,28.90
2018-02-23T17:53:29.602Z,27.53
2018-02-23T17:55:57.518Z,23.50
2018-02-23T17:58:25.108Z,27.13
2018-02-23T18:00:53.019Z,28.63
2018-02-23T18:03:20.624Z,27.47
2018-02-23T18:05:48.178Z,21.43
2018-02-23T18:08:15.731Z,33.13
2018-02-23T18:10:43.482Z,33.07
2018-02-23T18:13:11.340Z,26.57
2018-02-23T18:15:38.930Z,24.43
2018-02-23T18:18:06.532Z,29.77
2018-02-23T18:20:34.136Z,26.00
2018-02-23T18:23:01.680Z,26.27
2018-02-23T18:25:29.238Z,24.37
2018-02-23T18:27:57.108Z,28.80
2018-02-23T18:30:24.675Z,23.20
2018-02-23T18:32:52.560Z,23.70
2018-02-23T18:35:20.200Z,25.70
2018-02-23T18:37:47.793Z,32.83
2018-02-23T18:40:15.394Z,27.53
2018-02-23T18:42:43.313Z,21.97
2018-02-23T18:45:10.844Z,24.43
2018-02-23T18:47:38.378Z,22.27
2018-02-23T18:50:06.293Z,23.17
2018-02-23T18:52:34.148Z,27.30
2018-02-23T18:55:01.684Z,21.87
2018-02-23T18:57:29.317Z,35.87
2018-02-23T18:59:56.919Z,28.37
2018-02-23T19:02:24.519Z,27.40
2018-02-23T19:04:52.063Z,24.90
2018-02-23T19:07:19.898Z,27.30
2018-02-23T19:09:47.808Z,25.60
2018-02-23T19:12:15.398Z,26.10
2018-02-23T19:14:42.991Z,22.13
2018-02-23T19:17:10.632Z,27.33
2018-02-23T19:19:38.345Z,24.37
2018-02-23T19:22:06.718Z,22.40
2018-02-23T19:24:34.307Z,27.30
2018-02-23T19:27:01.861Z,25.47
2018-02-23T19:29:29.830Z,20.40
2018-02-23T19:31:57.414Z,28.23
2018-02-23T19:34:26.195Z,22.63
2018-02-23T19:36:54.459Z,22.00
2018-02-23T19:39:21.997Z,27.30
2018-02-23T19:41:49.655Z,25.33
2018-02-23T19:44:17.204Z,22.17
2018-02-23T19:46:44.757Z,20.83
2018-02-23T19:49:12.370Z,25.87
2018-02-23T19:51:40.094Z,23.60
2018-02-23T19:54:07.663Z,28.10
2018-02-23T19:56:35.562Z,24.50
2018-02-23T19:59:03.215Z,26.10
2018-02-23T20:01:30.805Z,20.80
2018-02-23T20:03:58.399Z,29.97
2018-02-23T20:06:26.166Z,27.83
2018-02-23T20:08:53.932Z,26.27
2018-02-23T20:11:21.492Z,28.37
2018-02-23T20:13:49.307Z,27.50
2018-02-23T20:16:17.074Z,27.97
2018-02-23T20:18:45.019Z,26.23
2018-02-23T20:21:12.655Z,22.40
2018-02-23T20:23:40.203Z,28.83
2018-02-23T20:26:07.915Z,34.37
2018-02-23T20:28:36.445Z,23.37
2018-02-23T20:31:04.004Z,24.33
2018-02-23T20:33:31.594Z,28.80
2018-02-23T20:35:59.156Z,27.77
2018-02-23T20:38:26.940Z,25.83
2018-02-23T20:40:54.543Z,25.60
2018-02-23T20:43:22.574Z,30.70
2018-02-23T20:45:50.246Z,26.90
2018-02-23T20:48:17.878Z,27.70
2018-02-23T20:50:46.528Z,27.13
2018-02-23T20:53:14.122Z,27.50
2018-02-23T20:55:42.027Z,23.80
2018-02-23T20:58:09.578Z,25.23
2018-02-23T21:00:37.116Z,27.90
2018-02-23T21:03:05.004Z,29.90
2018-02-23T21:05:32.546Z,21.90
2018-02-23T21:08:00.104Z,33.20
2018-02-23T21:10:27.640Z,25.87
2018-02-23T21:12:55.179Z,22.97
2018-02-23T21:15:22.739Z,22.80
2018-02-23T21:17:50.283Z,21.83
2018-02-23T21:20:17.891Z,29.07
2018-02-23T21:22:45.685Z,21.77
2018-02-23T21:25:13.226Z,22.23
2018-02-23T21:27:40.889Z,24.23
2018-02-23T21:30:08.388Z,27.40
2018-02-23T21:32:35.917Z,26.40
2018-02-23T21:35:03.501Z,28.80
2018-02-23T21:37:31.041Z,23.23
2018-02-23T21:39:58.934Z,22.37
2018-02-23T21:42:26.496Z,22.67
2018-02-23T21:44:54.048Z,25.00
2018-02-23T21:47:21.623Z,22.80
2018-02-23T21:49:49.156Z,28.83
2018-02-23T21:52:16.702Z,23.90
2018-02-23T21:54:44.298Z,26.67
2018-02-23T21:57:11.885Z,21.73
2018-02-23T21:59:39.487Z,23.47
2018-02-23T22:02:07.047Z,25.93
2018-02-23T22:04:34.640Z,25.17
2018-02-23T22:07:02.298Z,35.17
2018-02-23T22:09:29.845Z,31.70
2018-02-23T22:11:57.426Z,29.00
2018-02-23T22:14:25.219Z,25.97
2018-02-23T22:16:52.812Z,27.20
2018-02-23T22:19:20.334Z,28.60
2018-02-23T22:21:47.915Z,30.90
2018-02-23T22:24:15.855Z,32.13
2018-02-23T22:26:43.481Z,29.53
2018-02-23T22:29:11.493Z,34.73
2018-02-23T22:31:39.149Z,25.97
2018-02-23T22:34:06.694Z,37.83
2018-02-23T22:36:34.244Z,30.23
2018-02-23T22:39:01.815Z,34.40
2018-02-23T22:41:29.395Z,34.70
2018-02-23T22:43:56.990Z,27.50
2018-02-23T22:46:24.522Z,28.50
2018-02-23T22:48:52.302Z,31.30
2018-02-23T22:51:19.902Z,29.03
2018-02-23T22:53:47.450Z,34.27
2018-02-23T22:56:15.009Z,30.30
2018-02-23T22:58:42.595Z,30.00
2018-02-23T23:01:10.193Z,36.10
2018-02-23T23:03:37.760Z,30.57
2018-02-23T23:06:05.286Z,25.47
2018-02-23T23:08:32.816Z,35.60
2018-02-23T23:11:00.506Z,30.00
2018-02-23T23:13:28.073Z,34.43
2018-02-23T23:15:55.665Z,39.20
2018-02-23T23:18:23.213Z,28.23
2018-02-23T23:20:51.058Z,31.37
2018-02-23T23:23:18.928Z,39.10
2018-02-23T23:25:46.483Z,26.77
2018-02-23T23:28:14.027Z,28.53
2018-02-23T23:30:41.812Z,26.30
2018-02-23T23:33:09.353Z,38.13
2018-02-23T23:35:36.922Z,33.97
2018-02-23T23:38:04.477Z,28.03
2018-02-23T23:40:32.269Z,31.80
2018-02-23T23:43:00.140Z,28.63
2018-02-23T23:45:27.667Z,31.63
2018-02-23T23:47:55.203Z,29.03
2018-02-23T23:50:22.766Z,25.40
2018-02-23T23:52:50.290Z,27.13
2018-02-23T23:55:17.861Z,24.10
2018-02-23T23:57:45.399Z,29.60
